Time;durP1;ratioP1;P1;durP2;ratioP2;P2;SDS_P1;SDS_P2;PMS_P1;PMS_P2;Temp;Humidity;BMP_temperature;BMP_pressure;BME280_temperature;BME280_humidity;BME280_pressure;Samples;Min_cycle;Max_cycle;Signal;HPM_P1;HPM_P2
2024/04/18 00:01:29;;;;;;;;;;;;;;;;;;5234298;26;87249;-77
2024/04/18 00:03:55;;;;;;;;;;;;;;;;;;5234654;26;87636;-76
2024/04/18 00:06:20;;;;;;;;;;;;;;;;;;5261928;26;87547;-75
2024/04/18 00:08:45;;;;;;;;;;;;;;;;;;5302595;26;87682;-75
2024/04/18 00:11:10;;;;;;;;;;;;;;;;;;5301572;26;86834;-75
2024/04/18 00:13:35;;;;;;;;;;;;;;;;;;5302282;26;87118;-73
2024/04/18 00:16:01;;;;;;;;;;;;;;;;;;5329718;26;88509;-75
2024/04/18 00:18:26;;;;;;;;;;;;;;;;;;5302085;26;87814;-75
2024/04/18 00:20:51;;;;;;;;;;;;;;;;;;5241763;26;87217;-74
2024/04/18 00:23:17;;;;;;;;;;;;;;;;;;5233060;26;87707;-76
2024/04/18 00:25:42;;;;;;;;;;;;;;;;;;5232758;26;87406;-76
2024/04/18 00:28:07;;;;;;;;;;;;;;;;;;5233262;27;87709;-75
2024/04/18 00:30:32;;;;;;;;;;;;;;;;;;5233722;26;87052;-74
2024/04/18 00:32:57;;;;;;;;;;;;;;;;;;5288594;26;86861;-74
2024/04/18 00:35:22;;;;;;;;;;;;;;;;;;5233678;26;87200;-74
2024/04/18 00:37:48;;;;;;;;;;;;;;;;;;5232388;27;89272;-78
2024/04/18 00:40:13;;;;;;;;;;;;;;;;;;5235175;26;86610;-78
2024/04/18 00:42:38;;;;;;;;;;;;;;;;;;5239175;26;87395;-76
2024/04/18 00:45:04;;;;;;;;;;;;;;;;;;5291358;26;86919;-76
2024/04/18 00:47:29;;;;;;;;;;;;;;;;;;5236618;26;88353;-78
2024/04/18 00:49:54;;;;;;;;;;;;;;;;;;5234224;27;88194;-77
2024/04/18 00:52:20;;;;;;;;;;;;;;;;;;5236041;26;87000;-78
2024/04/18 00:54:49;;;;;;;;;;;;;;;;;;5236593;27;87170;-78
2024/04/18 00:57:14;;;;;;;;;;;;;;;;;;5235799;26;88136;-78
2024/04/18 00:59:40;;;;;;;;;;;;;;;;;;5233736;27;87235;-76
2024/04/18 01:02:05;;;;;;;;;;;;;;;;;;5232528;27;89045;-75
2024/04/18 01:04:31;;;;;;;;;;;;;;;;;;5243069;26;87538;-76
2024/04/18 01:06:56;;;;;;;;;;;;;;;;;;5267050;26;87330;-77
2024/04/18 01:09:21;;;;;;;;;;;;;;;;;;5267315;26;86703;-77
2024/04/18 01:11:47;;;;;;;;;;;;;;;;;;5267119;26;86574;-75
2024/04/18 01:14:12;;;;;;;;;;;;;;;;;;5266364;26;87427;-74
2024/04/18 01:16:37;;;;;;;;;;;;;;;;;;5267660;26;87147;-76
2024/04/18 01:19:09;;;;;;;;;;;;;;;;;;5267555;26;87256;-74
2024/04/18 01:21:35;;;;;;;;;;;;;;;;;;5266043;26;90112;-77
2024/04/18 01:24:00;;;;;;;;;;;;;;;;;;5267164;26;87268;-76
2024/04/18 01:26:25;;;;;;;;;;;;;;;;;;5297872;26;87126;-77
2024/04/18 01:28:50;;;;;;;;;;;;;;;;;;5267310;26;87065;-75
2024/04/18 01:31:15;;;;;;;;;;;;;;;;;;5267074;26;86786;-73
2024/04/18 01:33:41;;;;;;;;;;;;;;;;;;5266766;26;87389;-76
2024/04/18 01:36:06;;;;;;;;;;;;;;;;;;5266847;26;86702;-74
2024/04/18 01:38:31;;;;;;;;;;;;;;;;;;5266468;26;87185;-74
2024/04/18 01:40:56;;;;;;;;;;;;;;;;;;5266462;26;87894;-75
2024/04/18 01:43:21;;;;;;;;;;;;;;;;;;5266895;26;87254;-74
2024/04/18 01:45:47;;;;;;;;;;;;;;;;;;5267065;26;86641;-75
2024/04/18 01:48:12;;;;;;;;;;;;;;;;;;5270289;26;87294;-76
2024/04/18 01:50:37;;;;;;;;;;;;;;;;;;5266965;26;86971;-74
2024/04/18 01:53:02;;;;;;;;;;;;;;;;;;5293933;26;88727;-75
2024/04/18 01:55:28;;;;;;;;;;;;;;;;;;5267477;26;87860;-74
2024/04/18 01:57:53;;;;;;;;;;;;;;;;;;5267566;26;87251;-76
2024/04/18 02:00:18;;;;;;;;;;;;;;;;;;5268427;26;88277;-77
2024/04/18 02:02:43;;;;;;;;;;;;;;;;;;5266785;26;87307;-78
2024/04/18 02:05:08;;;;;;;;;;;;;;;;;;5266577;26;87275;-75
2024/04/18 02:07:33;;;;;;;;;;;;;;;;;;5269085;26;88125;-76
2024/04/18 02:09:59;;;;;;;;;;;;;;;;;;5266223;26;87411;-74
2024/04/18 02:12:24;;;;;;;;;;;;;;;;;;5266797;26;87799;-77
2024/04/18 02:14:49;;;;;;;;;;;;;;;;;;5267073;26;87141;-77
2024/04/18 02:17:14;;;;;;;;;;;;;;;;;;5294143;26;86717;-77
2024/04/18 02:19:39;;;;;;;;;;;;;;;;;;5297985;26;90092;-78
2024/04/18 02:22:05;;;;;;;;;;;;;;;;;;5270939;26;87015;-79
2024/04/18 02:24:31;;;;;;;;;;;;;;;;;;5271978;26;86616;-78
2024/04/18 02:26:57;;;;;;;;;;;;;;;;;;5271627;26;87131;-76
2024/04/18 02:29:22;;;;;;;;;;;;;;;;;;5274701;26;87170;-76
2024/04/18 02:31:47;;;;;;;;;;;;;;;;;;5270925;26;87845;-78
2024/04/18 02:34:12;;;;;;;;;;;;;;;;;;5271930;26;86873;-78
2024/04/18 02:36:38;;;;;;;;;;;;;;;;;;5298077;26;88296;-76
2024/04/18 02:39:03;;;;;;;;;;;;;;;;;;5268225;26;87396;-74
2024/04/18 02:41:28;;;;;;;;;;;;;;;;;;5268131;26;87258;-75
2024/04/18 02:43:54;;;;;;;;;;;;;;;;;;5269191;26;86925;-74
2024/04/18 02:46:20;;;;;;;;;;;;;;;;;;5269040;26;87840;-78
2024/04/18 02:48:45;;;;;;;;;;;;;;;;;;5269560;26;87335;-77
2024/04/18 02:51:10;;;;;;;;;;;;;;;;;;5273019;26;86790;-77
2024/04/18 02:53:35;;;;;;;;;;;;;;;;;;5269893;26;87534;-76
2024/04/18 02:56:00;;;;;;;;;;;;;;;;;;5269941;26;87065;-76
2024/04/18 02:58:25;;;;;;;;;;;;;;;;;;5268825;26;87484;-78
2024/04/18 03:00:51;;;;;;;;;;;;;;;;;;5269778;26;87737;-78
2024/04/18 03:03:16;;;;;;;;;;;;;;;;;;5268354;26;86999;-78
2024/04/18 03:05:41;;;;;;;;;;;;;;;;;;5269405;26;87339;-78
2024/04/18 03:08:06;;;;;;;;;;;;;;;;;;5268722;26;86998;-77
2024/04/18 03:10:31;;;;;;;;;;;;;;;;;;5295339;26;87811;-77
2024/04/18 03:12:57;;;;;;;;;;;;;;;;;;5270554;26;87685;-78
2024/04/18 03:15:22;;;;;;;;;;;;;;;;;;5267038;26;86757;-75
2024/04/18 03:17:51;;;;;;;;;;;;;;;;;;5267508;26;88146;-75
2024/04/18 03:20:16;;;;;;;;;;;;;;;;;;5267649;26;87146;-75
2024/04/18 03:22:41;;;;;;;;;;;;;;;;;;5268074;26;87028;-76
2024/04/18 03:25:06;;;;;;;;;;;;;;;;;;5267507;26;87585;-74
2024/04/18 03:27:32;;;;;;;;;;;;;;;;;;5265953;26;89360;-74
2024/04/18 03:29:57;;;;;;;;;;;;;;;;;;5267289;26;87249;-76
2024/04/18 03:32:23;;;;;;;;;;;;;;;;;;5268667;26;87267;-76
2024/04/18 03:34:51;;;;;;;;;;;;;;;;;;5270962;26;87075;-76
2024/04/18 03:37:16;;;;;;;;;;;;;;;;;;5267620;26;87050;-78
2024/04/18 03:39:41;;;;;;;;;;;;;;;;;;5267851;26;87076;-74
2024/04/18 03:42:06;;;;;;;;;;;;;;;;;;5268100;26;86485;-75
2024/04/18 03:44:31;;;;;;;;;;;;;;;;;;5266964;26;90155;-74
2024/04/18 03:46:57;;;;;;;;;;;;;;;;;;5267339;26;87914;-75
2024/04/18 03:49:22;;;;;;;;;;;;;;;;;;5267316;26;86727;-76
2024/04/18 03:51:47;;;;;;;;;;;;;;;;;;5268358;26;88118;-77
2024/04/18 03:54:12;;;;;;;;;;;;;;;;;;5268823;26;87827;-77
2024/04/18 03:56:38;;;;;;;;;;;;;;;;;;5271696;26;87334;-76
2024/04/18 03:59:03;;;;;;;;;;;;;;;;;;5266157;26;89798;-76
2024/04/18 04:01:29;;;;;;;;;;;;;;;;;;5296449;26;87835;-77
2024/04/18 04:03:54;;;;;;;;;;;;;;;;;;5269477;26;87209;-77
2024/04/18 04:06:20;;;;;;;;;;;;;;;;;;5295196;26;87110;-76
2024/04/18 04:08:46;;;;;;;;;;;;;;;;;;5305452;26;87051;-77
2024/04/18 04:11:11;;;;;;;;;;;;;;;;;;5305466;26;87485;-79
2024/04/18 04:13:36;;;;;;;;;;;;;;;;;;5333398;26;87798;-77
2024/04/18 04:16:01;;;;;;;;;;;;;;;;;;5308936;26;86920;-77
2024/04/18 04:18:27;;;;;;;;;;;;;;;;;;5303221;26;86645;-76
2024/04/18 04:20:52;;;;;;;;;;;;;;;;;;5302929;26;87218;-75
2024/04/18 04:23:17;;;;;;;;;;;;;;;;;;5300580;26;89151;-76
2024/04/18 04:25:42;;;;;;;;;;;;;;;;;;5302070;26;88651;-75
2024/04/18 04:28:08;;;;;;;;;;;;;;;;;;5301731;26;88845;-75
2024/04/18 04:30:33;;;;;;;;;;;;;;;;;;5301176;26;87999;-77
2024/04/18 04:32:58;;;;;;;;;;;;;;;;;;5329246;26;89295;-75
2024/04/18 04:35:23;;;;;;;;;;;;;;;;;;5329036;26;87356;-74
2024/04/18 04:37:48;;;;;;;;;;;;;;;;;;5304928;26;87233;-78
2024/04/18 04:40:14;;;;;;;;;;;;;;;;;;5302917;26;87106;-76
2024/04/18 04:42:39;;;;;;;;;;;;;;;;;;5302778;26;89426;-75
2024/04/18 04:45:04;;;;;;;;;;;;;;;;;;5302889;26;86876;-74
2024/04/18 04:47:30;;;;;;;;;;;;;;;;;;5302748;26;87417;-77
2024/04/18 04:49:55;;;;;;;;;;;;;;;;;;5329726;26;89864;-74
2024/04/18 04:52:20;;;;;;;;;;;;;;;;;;5302174;26;87023;-74
2024/04/18 04:54:46;;;;;;;;;;;;;;;;;;5302716;26;87102;-76
2024/04/18 04:57:12;;;;;;;;;;;;;;;;;;5329727;26;89961;-77
2024/04/18 04:59:37;;;;;;;;;;;;;;;;;;5304634;26;86655;-77
2024/04/18 05:02:02;;;;;;;;;;;;;;;;;;5301886;26;87268;-77
2024/04/18 05:04:28;;;;;;;;;;;;;;;;;;5301844;26;87622;-77
2024/04/18 05:06:54;;;;;;;;;;;;;;;;;;5302559;26;87155;-77
2024/04/18 05:09:20;;;;;;;;;;;;;;;;;;5303134;26;87308;-77
2024/04/18 05:11:46;;;;;;;;;;;;;;;;;;5300484;26;89661;-79
2024/04/18 05:14:11;;;;;;;;;;;;;;;;;;5302235;26;86975;-79
2024/04/18 05:16:36;;;;;;;;;;;;;;;;;;5303239;26;86538;-78
2024/04/18 05:19:02;;;;;;;;;;;;;;;;;;5275639;26;87118;-77
2024/04/18 05:21:27;;;;;;;;;;;;;;;;;;5271503;26;86876;-73
2024/04/18 05:23:52;;;;;;;;;;;;;;;;;;5259324;26;90115;-76
2024/04/18 05:26:17;;;;;;;;;;;;;;;;;;5235391;26;86928;-75
2024/04/18 05:31:27;;;;;;;;;;;;;;;;;;5240059;26;87282;-74
2024/04/18 05:33:52;;;;;;;;;;;;;;;;;;5250230;26;86911;-74
2024/04/18 05:36:17;;;;;;;;;;;;;;;;;;5248409;26;87694;-75
2024/04/18 05:38:42;;;;;;;;;;;;;;;;;;5241926;26;88649;-75
2024/04/18 05:41:07;;;;;;;;;;;;;;;;;;5252629;26;87025;-74
2024/04/18 05:43:33;;;;;;;;;;;;;;;;;;5266714;26;86622;-73
2024/04/18 05:45:58;;;;;;;;;;;;;;;;;;5246275;26;87185;-75
2024/04/18 05:48:23;;;;;;;;;;;;;;;;;;5254314;26;90531;-74
2024/04/18 05:50:49;;;;;;;;;;;;;;;;;;5253046;26;87910;-75
2024/04/18 05:53:14;;;;;;;;;;;;;;;;;;5244927;26;88174;-73
2024/04/18 05:55:39;;;;;;;;;;;;;;;;;;5276506;26;88852;-74
2024/04/18 05:58:05;;;;;;;;;;;;;;;;;;5279640;26;86864;-73
2024/04/18 06:00:30;;;;;;;;;;;;;;;;;;5244069;26;87000;-74
2024/04/18 06:02:55;;;;;;;;;;;;;;;;;;5258674;26;87362;-75
2024/04/18 06:05:20;;;;;;;;;;;;;;;;;;5264685;26;86605;-75
2024/04/18 06:07:45;;;;;;;;;;;;;;;;;;5258129;26;87070;-73
2024/04/18 06:10:11;;;;;;;;;;;;;;;;;;5255786;26;86765;-72
2024/04/18 06:12:36;;;;;;;;;;;;;;;;;;5249760;26;86971;-73
2024/04/18 06:15:01;;;;;;;;;;;;;;;;;;5258169;26;87974;-75
2024/04/18 06:17:27;;;;;;;;;;;;;;;;;;5253370;26;87527;-72
2024/04/18 06:19:53;;;;;;;;;;;;;;;;;;5258848;26;86643;-74
2024/04/18 06:22:18;;;;;;;;;;;;;;;;;;5247696;26;87562;-74
2024/04/18 06:24:43;;;;;;;;;;;;;;;;;;5259497;26;87094;-73
2024/04/18 06:27:09;;;;;;;;;;;;;;;;;;5252659;26;87218;-73
2024/04/18 06:29:34;;;;;;;;;;;;;;;;;;5291679;26;89282;-74
2024/04/18 06:31:59;;;;;;;;;;;;;;;;;;5247307;26;87550;-73
2024/04/18 06:34:24;;;;;;;;;;;;;;;;;;5258523;26;87418;-73
2024/04/18 06:36:50;;;;;;;;;;;;;;;;;;5248659;26;88157;-73
2024/04/18 06:39:15;;;;;;;;;;;;;;;;;;5261637;26;86744;-73
2024/04/18 06:41:40;;;;;;;;;;;;;;;;;;5247452;26;88147;-75
2024/04/18 06:44:06;;;;;;;;;;;;;;;;;;5270476;26;88366;-73
2024/04/18 06:46:31;;;;;;;;;;;;;;;;;;5252215;26;87048;-73
2024/04/18 06:48:56;;;;;;;;;;;;;;;;;;5252542;26;87896;-73
2024/04/18 06:51:22;;;;;;;;;;;;;;;;;;5256992;26;88463;-74
2024/04/18 06:53:47;;;;;;;;;;;;;;;;;;5241797;26;87454;-73
2024/04/18 06:56:12;;;;;;;;;;;;;;;;;;5269380;26;87210;-72
2024/04/18 06:58:38;;;;;;;;;;;;;;;;;;5234095;26;86613;-73
2024/04/18 07:01:04;;;;;;;;;;;;;;;;;;5248360;26;87504;-72
2024/04/18 07:03:30;;;;;;;;;;;;;;;;;;5256123;26;86739;-75
2024/04/18 07:05:56;;;;;;;;;;;;;;;;;;5242664;26;87432;-76
2024/04/18 07:08:21;;;;;;;;;;;;;;;;;;5249614;26;87883;-75
2024/04/18 07:10:47;;;;;;;;;;;;;;;;;;5256492;26;86554;-75
2024/04/18 07:13:12;;;;;;;;;;;;;;;;;;5253082;26;89201;-74
2024/04/18 07:15:39;;;;;;;;;;;;;;;;;;5245564;26;87125;-75
2024/04/18 07:18:04;;;;;;;;;;;;;;;;;;5253368;26;87327;-74
2024/04/18 07:20:30;;;;;;;;;;;;;;;;;;5250813;26;87399;-74
2024/04/18 07:22:55;;;;;;;;;;;;;;;;;;5277805;26;88428;-74
2024/04/18 07:25:20;;;;;;;;;;;;;;;;;;5255983;26;88247;-76
2024/04/18 07:27:45;;;;;;;;;;;;;;;;;;5263707;26;91100;-75
2024/04/18 07:30:12;;;;;;;;;;;;;;;;;;5282034;26;88103;-75
2024/04/18 07:32:37;;;;;;;;;;;;;;;;;;5248364;26;88528;-76
2024/04/18 07:35:03;;;;;;;;;;;;;;;;;;5254843;26;87768;-75
2024/04/18 07:37:28;;;;;;;;;;;;;;;;;;5248353;26;87094;-77
2024/04/18 07:39:54;;;;;;;;;;;;;;;;;;5278410;26;90332;-75
2024/04/18 07:42:19;;;;;;;;;;;;;;;;;;5250588;26;86997;-75
2024/04/18 07:44:45;;;;;;;;;;;;;;;;;;5252156;26;88819;-72
2024/04/18 07:47:10;;;;;;;;;;;;;;;;;;5262910;26;88479;-74
2024/04/18 07:49:35;;;;;;;;;;;;;;;;;;5294500;26;88068;-74
2024/04/18 07:52:00;;;;;;;;;;;;;;;;;;5256205;26;87493;-73
2024/04/18 07:54:25;;;;;;;;;;;;;;;;;;5248414;26;88249;-74
2024/04/18 07:56:53;;;;;;;;;;;;;;;;;;5257281;26;88339;-74
2024/04/18 07:59:18;;;;;;;;;;;;;;;;;;5238331;26;87301;-73
2024/04/18 08:01:44;;;;;;;;;;;;;;;;;;5274591;26;89547;-73
2024/04/18 08:04:09;;;;;;;;;;;;;;;;;;5264122;26;87430;-72
2024/04/18 08:06:36;;;;;;;;;;;;;;;;;;5278623;26;88935;-72
2024/04/18 08:09:04;;;;;;;;;;;;;;;;;;5270061;26;86973;-73
2024/04/18 08:11:29;;;;;;;;;;;;;;;;;;5241831;26;87234;-75
2024/04/18 08:13:54;;;;;;;;;;;;;;;;;;5258817;26;87055;-74
2024/04/18 08:16:20;;;;;;;;;;;;;;;;;;5253714;26;87117;-73
2024/04/18 08:18:45;;;;;;;;;;;;;;;;;;5249114;26;88354;-75
2024/04/18 08:21:10;;;;;;;;;;;;;;;;;;5260239;26;88723;-73
2024/04/18 08:23:35;;;;;;;;;;;;;;;;;;5260743;26;88184;-74
2024/04/18 08:26:01;;;;;;;;;;;;;;;;;;5262675;26;88177;-75
2024/04/18 08:28:26;;;;;;;;;;;;;;;;;;5265260;26;87414;-75
2024/04/18 08:30:51;;;;;;;;;;;;;;;;;;5256056;26;87205;-73
2024/04/18 08:33:17;;;;;;;;;;;;;;;;;;5256642;26;88301;-75
2024/04/18 08:35:45;;;;;;;;;;;;;;;;;;5246785;26;87279;-75
2024/04/18 08:38:12;;;;;;;;;;;;;;;;;;5247934;26;87390;-73
2024/04/18 08:40:37;;;;;;;;;;;;;;;;;;5249167;26;88844;-75
2024/04/18 08:43:02;;;;;;;;;;;;;;;;;;5256052;26;87677;-74
2024/04/18 08:45:33;;;;;;;;;;;;;;;;;;5252235;26;88112;-75
2024/04/18 08:47:59;;;;;;;;;;;;;;;;;;5278902;26;89765;-76
2024/04/18 08:50:26;;;;;;;;;;;;;;;;;;5238936;26;87154;-76
2024/04/18 08:52:52;;;;;;;;;;;;;;;;;;5249495;26;90591;-76
2024/04/18 08:55:17;;;;;;;;;;;;;;;;;;5250631;26;86994;-75
2024/04/18 08:58:11;;;;;;;;;;;;;;;;;;5251258;26;87643;-75
2024/04/18 09:00:39;;;;;;;;;;;;;;;;;;5246185;26;87399;-75
2024/04/18 09:03:05;;;;;;;;;;;;;;;;;;5267711;26;87823;-74
2024/04/18 09:05:30;;;;;;;;;;;;;;;;;;5249385;26;86880;-74
2024/04/18 09:07:56;;;;;;;;;;;;;;;;;;5273428;26;89692;-74
2024/04/18 09:10:23;;;;;;;;;;;;;;;;;;5249423;26;87716;-75
2024/04/18 09:12:51;;;;;;;;;;;;;;;;;;5269931;26;90048;-72
2024/04/18 09:15:16;;;;;;;;;;;;;;;;;;5263117;26;87157;-74
2024/04/18 09:17:41;;;;;;;;;;;;;;;;;;5272122;26;87938;-76
2024/04/18 09:20:07;;;;;;;;;;;;;;;;;;5246032;26;87032;-75
2024/04/18 09:22:32;;;;;;;;;;;;;;;;;;5251643;26;87082;-74
2024/04/18 09:24:58;;;;;;;;;;;;;;;;;;5243566;26;87516;-75
2024/04/18 09:27:23;;;;;;;;;;;;;;;;;;5263032;26;86844;-76
2024/04/18 09:29:48;;;;;;;;;;;;;;;;;;5252247;26;86620;-75
2024/04/18 09:32:15;;;;;;;;;;;;;;;;;;5251011;26;87572;-75
2024/04/18 09:34:42;;;;;;;;;;;;;;;;;;5251031;26;86867;-75
2024/04/18 09:37:10;;;;;;;;;;;;;;;;;;5252370;26;87393;-76
2024/04/18 09:39:36;;;;;;;;;;;;;;;;;;5246419;26;87306;-76
2024/04/18 09:42:18;;;;;;;;;;;;;;;;;;5255668;26;87392;-76
2024/04/18 09:44:48;;;;;;;;;;;;;;;;;;5250550;26;89862;-76
2024/04/18 09:47:13;;;;;;;;;;;;;;;;;;5259838;26;87153;-75
2024/04/18 09:49:39;;;;;;;;;;;;;;;;;;5268713;26;87799;-74
2024/04/18 09:52:06;;;;;;;;;;;;;;;;;;5254578;26;88197;-75
2024/04/18 09:54:31;;;;;;;;;;;;;;;;;;5268082;26;89599;-75
2024/04/18 09:56:58;;;;;;;;;;;;;;;;;;5251622;26;87048;-74
2024/04/18 09:59:26;;;;;;;;;;;;;;;;;;5247769;26;87230;-75
2024/04/18 10:01:51;;;;;;;;;;;;;;;;;;5269835;26;87027;-75
2024/04/18 10:04:16;;;;;;;;;;;;;;;;;;5257533;26;88780;-78
2024/04/18 10:06:45;;;;;;;;;;;;;;;;;;5254000;26;86699;-75
2024/04/18 10:09:12;;;;;;;;;;;;;;;;;;5253569;26;86902;-75
2024/04/18 10:11:37;;;;;;;;;;;;;;;;;;5258924;26;86952;-74
2024/04/18 10:14:03;;;;;;;;;;;;;;;;;;5261678;26;87096;-74
2024/04/18 10:16:29;;;;;;;;;;;;;;;;;;5260515;26;87844;-73
2024/04/18 10:18:54;;;;;;;;;;;;;;;;;;5251372;26;87220;-74
2024/04/18 10:21:23;;;;;;;;;;;;;;;;;;5252926;26;86952;-75
2024/04/18 10:23:49;;;;;;;;;;;;;;;;;;5255673;26;87393;-75
2024/04/18 10:26:14;;;;;;;;;;;;;;;;;;5237063;26;87491;-74
2024/04/18 10:28:40;;;;;;;;;;;;;;;;;;5250484;26;86577;-75
2024/04/18 10:31:05;;;;;;;;;;;;;;;;;;5253269;26;87834;-75
2024/04/18 10:33:32;;;;;;;;;;;;;;;;;;5261718;26;89476;-74
2024/04/18 10:35:58;;;;;;;;;;;;;;;;;;5242593;26;87547;-73
2024/04/18 10:38:26;;;;;;;;;;;;;;;;;;5262758;26;87378;-75
2024/04/18 10:41:01;;;;;;;;;;;;;;;;;;5270660;26;87340;-76
2024/04/18 10:43:27;;;;;;;;;;;;;;;;;;5242059;26;87160;-74
2024/04/18 10:45:53;;;;;;;;;;;;;;;;;;5286029;26;89901;-74
2024/04/18 10:48:19;;;;;;;;;;;;;;;;;;5250409;26;86692;-75
2024/04/18 10:50:44;;;;;;;;;;;;;;;;;;5255232;26;88504;-76
2024/04/18 10:53:10;;;;;;;;;;;;;;;;;;5263878;26;89426;-76
2024/04/18 10:55:35;;;;;;;;;;;;;;;;;;5251434;26;86964;-75
2024/04/18 10:58:02;;;;;;;;;;;;;;;;;;5257837;26;87005;-75
2024/04/18 11:00:31;;;;;;;;;;;;;;;;;;5262110;26;86813;-75
2024/04/18 11:02:57;;;;;;;;;;;;;;;;;;5283994;26;87993;-74
2024/04/18 11:05:22;;;;;;;;;;;;;;;;;;5254318;26;87377;-74
2024/04/18 11:07:48;;;;;;;;;;;;;;;;;;5261633;26;87647;-74
2024/04/18 11:10:14;;;;;;;;;;;;;;;;;;5257843;26;88089;-74
2024/04/18 11:12:39;;;;;;;;;;;;;;;;;;5259797;26;87263;-75
2024/04/18 11:15:04;;;;;;;;;;;;;;;;;;5257953;26;87112;-76
2024/04/18 11:17:29;;;;;;;;;;;;;;;;;;5243686;26;88440;-74
2024/04/18 11:19:56;;;;;;;;;;;;;;;;;;5252490;26;87499;-74
2024/04/18 11:22:22;;;;;;;;;;;;;;;;;;5248795;26;87100;-73
2024/04/18 11:24:47;;;;;;;;;;;;;;;;;;5257215;26;87825;-74
2024/04/18 11:27:12;;;;;;;;;;;;;;;;;;5266781;26;89674;-76
2024/04/18 11:29:37;;;;;;;;;;;;;;;;;;5263589;26;87225;-75
2024/04/18 11:32:06;;;;;;;;;;;;;;;;;;5260636;26;87051;-75
2024/04/18 11:34:31;;;;;;;;;;;;;;;;;;5259214;26;86565;-75
2024/04/18 11:36:56;;;;;;;;;;;;;;;;;;5264978;26;86667;-75
2024/04/18 11:39:22;;;;;;;;;;;;;;;;;;5257200;26;87102;-75
2024/04/18 11:41:47;;;;;;;;;;;;;;;;;;5247148;26;88020;-73
2024/04/18 11:44:12;;;;;;;;;;;;;;;;;;5240192;26;87359;-74
2024/04/18 11:46:37;;;;;;;;;;;;;;;;;;5284269;26;89076;-76
2024/04/18 11:49:04;;;;;;;;;;;;;;;;;;5239702;26;87323;-75
2024/04/18 11:51:29;;;;;;;;;;;;;;;;;;5278004;26;89550;-76
2024/04/18 11:53:54;;;;;;;;;;;;;;;;;;5252926;26;88128;-74
2024/04/18 11:56:19;;;;;;;;;;;;;;;;;;5278794;26;90966;-75
2024/04/18 11:58:45;;;;;;;;;;;;;;;;;;5241619;26;87487;-75
2024/04/18 12:01:11;;;;;;;;;;;;;;;;;;5249017;26;88377;-76
2024/04/18 12:03:37;;;;;;;;;;;;;;;;;;5248454;26;87142;-76
2024/04/18 12:06:03;;;;;;;;;;;;;;;;;;5249036;26;87099;-75
2024/04/18 12:08:29;;;;;;;;;;;;;;;;;;5237387;26;87293;-75
2024/04/18 12:10:54;;;;;;;;;;;;;;;;;;5259731;26;87725;-76
2024/04/18 12:13:19;;;;;;;;;;;;;;;;;;5236789;26;89199;-75
2024/04/18 12:15:45;;;;;;;;;;;;;;;;;;5256712;26;87582;-75
2024/04/18 12:18:10;;;;;;;;;;;;;;;;;;5242339;26;88693;-76
2024/04/18 12:20:35;;;;;;;;;;;;;;;;;;5253000;26;87126;-75
2024/04/18 12:23:00;;;;;;;;;;;;;;;;;;5264851;26;90541;-76
2024/04/18 12:25:25;;;;;;;;;;;;;;;;;;5247297;26;87411;-75
2024/04/18 12:27:51;;;;;;;;;;;;;;;;;;5281013;26;87290;-74
2024/04/18 12:30:16;;;;;;;;;;;;;;;;;;5249298;26;87314;-73
2024/04/18 12:32:41;;;;;;;;;;;;;;;;;;5271167;26;87372;-76
2024/04/18 12:35:07;;;;;;;;;;;;;;;;;;5250066;26;88364;-77
2024/04/18 12:37:33;;;;;;;;;;;;;;;;;;5249352;26;87647;-76
2024/04/18 12:40:00;;;;;;;;;;;;;;;;;;5255185;26;86873;-75
2024/04/18 12:42:25;;;;;;;;;;;;;;;;;;5263298;26;87440;-76
2024/04/18 12:44:50;;;;;;;;;;;;;;;;;;5248181;26;86981;-74
2024/04/18 12:47:16;;;;;;;;;;;;;;;;;;5245733;26;87285;-76
2024/04/18 12:49:45;;;;;;;;;;;;;;;;;;5246033;26;87576;-76
2024/04/18 12:52:10;;;;;;;;;;;;;;;;;;5244857;26;87376;-75
2024/04/18 12:54:36;;;;;;;;;;;;;;;;;;5249269;26;87745;-75
2024/04/18 12:57:01;;;;;;;;;;;;;;;;;;5249982;26;88896;-75
2024/04/18 12:59:26;;;;;;;;;;;;;;;;;;5239366;26;87278;-74
2024/04/18 13:01:52;;;;;;;;;;;;;;;;;;5242660;26;88633;-76
2024/04/18 13:04:17;;;;;;;;;;;;;;;;;;5274777;26;89809;-75
2024/04/18 13:06:43;;;;;;;;;;;;;;;;;;5247404;26;87042;-76
2024/04/18 13:09:08;;;;;;;;;;;;;;;;;;5240533;26;87554;-75
2024/04/18 13:11:33;;;;;;;;;;;;;;;;;;5250222;26;86958;-75
2024/04/18 13:14:00;;;;;;;;;;;;;;;;;;5249495;26;87057;-75
2024/04/18 13:16:25;;;;;;;;;;;;;;;;;;5246468;26;87180;-75
2024/04/18 13:18:51;;;;;;;;;;;;;;;;;;5250989;26;86909;-75
2024/04/18 13:21:17;;;;;;;;;;;;;;;;;;5250334;26;88065;-76
2024/04/18 13:23:42;;;;;;;;;;;;;;;;;;5268504;26;89885;-75
2024/04/18 13:26:07;;;;;;;;;;;;;;;;;;5236196;26;87111;-75
2024/04/18 13:28:32;;;;;;;;;;;;;;;;;;5249026;26;90086;-74
2024/04/18 13:30:57;;;;;;;;;;;;;;;;;;5247291;26;87280;-74
2024/04/18 13:33:23;;;;;;;;;;;;;;;;;;5249558;26;87181;-75
2024/04/18 13:35:48;;;;;;;;;;;;;;;;;;5247801;26;87473;-74
2024/04/18 13:38:13;;;;;;;;;;;;;;;;;;5248922;26;87471;-75
2024/04/18 13:40:38;;;;;;;;;;;;;;;;;;5250412;26;87903;-75
2024/04/18 13:43:04;;;;;;;;;;;;;;;;;;5248079;26;87978;-76
2024/04/18 13:45:32;;;;;;;;;;;;;;;;;;5259592;26;87593;-75
2024/04/18 13:48:01;;;;;;;;;;;;;;;;;;5261289;26;87510;-75
2024/04/18 13:50:30;;;;;;;;;;;;;;;;;;5252193;26;88164;-75
2024/04/18 13:52:58;;;;;;;;;;;;;;;;;;5252294;26;88445;-75
2024/04/18 13:55:23;;;;;;;;;;;;;;;;;;5262437;26;88241;-76
2024/04/18 13:57:48;;;;;;;;;;;;;;;;;;5292969;26;89397;-76
2024/04/18 14:00:14;;;;;;;;;;;;;;;;;;5261976;26;87712;-75
2024/04/18 14:02:39;;;;;;;;;;;;;;;;;;5255761;26;87649;-75
2024/04/18 14:05:05;;;;;;;;;;;;;;;;;;5261339;26;87384;-75
2024/04/18 14:07:30;;;;;;;;;;;;;;;;;;5260419;26;87705;-75
2024/04/18 14:09:55;;;;;;;;;;;;;;;;;;5242284;26;87342;-76
2024/04/18 14:12:21;;;;;;;;;;;;;;;;;;5243751;26;87352;-75
2024/04/18 14:14:46;;;;;;;;;;;;;;;;;;5247945;26;87477;-75
2024/04/18 14:19:55;;;;;;;;;;;;;;;;;;5256365;26;87794;-75
2024/04/18 14:22:21;;;;;;;;;;;;;;;;;;5246429;26;89041;-75
2024/04/18 14:24:46;;;;;;;;;;;;;;;;;;5250492;26;87406;-74
2024/04/18 14:27:11;;;;;;;;;;;;;;;;;;5248861;26;87392;-74
2024/04/18 14:29:36;;;;;;;;;;;;;;;;;;5261013;26;88125;-75
2024/04/18 14:32:02;;;;;;;;;;;;;;;;;;5250792;26;89348;-75
2024/04/18 14:34:27;;;;;;;;;;;;;;;;;;5264214;26;89137;-76
2024/04/18 14:36:52;;;;;;;;;;;;;;;;;;5252593;26;87236;-77
2024/04/18 14:39:18;;;;;;;;;;;;;;;;;;5253648;26;89704;-76
2024/04/18 14:41:43;;;;;;;;;;;;;;;;;;5247239;26;87288;-77
2024/04/18 14:44:08;;;;;;;;;;;;;;;;;;5237492;26;87268;-76
2024/04/18 14:46:36;;;;;;;;;;;;;;;;;;5242976;26;87761;-76
2024/04/18 14:49:08;;;;;;;;;;;;;;;;;;5253988;26;87356;-76
2024/04/18 14:51:33;;;;;;;;;;;;;;;;;;5262443;26;86803;-75
2024/04/18 14:53:59;;;;;;;;;;;;;;;;;;5263325;26;90041;-76
2024/04/18 14:56:24;;;;;;;;;;;;;;;;;;5242288;26;87231;-76
2024/04/18 14:58:49;;;;;;;;;;;;;;;;;;5265947;26;87710;-75
2024/04/18 15:01:15;;;;;;;;;;;;;;;;;;5245705;26;87529;-77
2024/04/18 15:03:40;;;;;;;;;;;;;;;;;;5244025;26;87438;-77
2024/04/18 15:06:05;;;;;;;;;;;;;;;;;;5249308;26;87455;-76
2024/04/18 15:08:30;;;;;;;;;;;;;;;;;;5237828;26;87366;-74
2024/04/18 15:10:56;;;;;;;;;;;;;;;;;;5270841;26;88892;-76
2024/04/18 15:13:21;;;;;;;;;;;;;;;;;;5239255;26;87499;-74
2024/04/18 15:15:47;;;;;;;;;;;;;;;;;;5282245;26;87897;-76
2024/04/18 15:18:13;;;;;;;;;;;;;;;;;;5248176;26;86998;-76
2024/04/18 15:20:38;;;;;;;;;;;;;;;;;;5247889;26;87535;-77
2024/04/18 15:23:03;;;;;;;;;;;;;;;;;;5252703;26;87550;-76
2024/04/18 15:25:29;;;;;;;;;;;;;;;;;;5259129;26;88302;-77
2024/04/18 15:27:54;;;;;;;;;;;;;;;;;;5243117;26;87335;-76
2024/04/18 15:30:19;;;;;;;;;;;;;;;;;;5250195;26;87702;-77
2024/04/18 15:32:48;;;;;;;;;;;;;;;;;;5243865;26;87959;-77
2024/04/18 15:35:13;;;;;;;;;;;;;;;;;;5253935;26;87270;-76
2024/04/18 15:37:39;;;;;;;;;;;;;;;;;;5240088;26;87269;-76
2024/04/18 15:40:05;;;;;;;;;;;;;;;;;;5243044;26;87943;-77
2024/04/18 15:42:30;;;;;;;;;;;;;;;;;;5253038;26;87070;-76
2024/04/18 15:44:55;;;;;;;;;;;;;;;;;;5253364;26;86822;-77
2024/04/18 15:47:20;;;;;;;;;;;;;;;;;;5249807;26;87337;-74
2024/04/18 15:49:45;;;;;;;;;;;;;;;;;;5249277;26;87481;-75
2024/04/18 15:52:13;;;;;;;;;;;;;;;;;;5251987;26;88329;-76
2024/04/18 15:54:39;;;;;;;;;;;;;;;;;;5252589;26;88057;-77
2024/04/18 15:57:04;;;;;;;;;;;;;;;;;;5248835;26;87637;-76
2024/04/18 15:59:29;;;;;;;;;;;;;;;;;;5255216;26;87447;-77
2024/04/18 16:01:54;;;;;;;;;;;;;;;;;;5233094;26;87396;-76
2024/04/18 16:04:20;;;;;;;;;;;;;;;;;;5248421;26;86745;-76
2024/04/18 16:06:45;;;;;;;;;;;;;;;;;;5267194;26;87600;-77
2024/04/18 16:09:10;;;;;;;;;;;;;;;;;;5250754;26;86738;-77
2024/04/18 16:11:36;;;;;;;;;;;;;;;;;;5246760;26;90475;-77
2024/04/18 16:14:01;;;;;;;;;;;;;;;;;;5254375;26;87165;-77
2024/04/18 16:16:27;;;;;;;;;;;;;;;;;;5243886;26;87220;-76
2024/04/18 16:18:52;;;;;;;;;;;;;;;;;;5250842;26;87465;-77
2024/04/18 16:21:17;;;;;;;;;;;;;;;;;;5257556;26;89166;-77
2024/04/18 16:23:42;;;;;;;;;;;;;;;;;;5250873;26;87215;-76
2024/04/18 16:26:07;;;;;;;;;;;;;;;;;;5266337;26;88631;-76
2024/04/18 16:28:33;;;;;;;;;;;;;;;;;;5268957;26;86808;-79
2024/04/18 16:30:58;;;;;;;;;;;;;;;;;;5289087;26;90151;-75
2024/04/18 16:33:23;;;;;;;;;;;;;;;;;;5258370;26;87248;-78
2024/04/18 16:35:49;;;;;;;;;;;;;;;;;;5265565;26;88231;-75
2024/04/18 16:38:14;;;;;;;;;;;;;;;;;;5261066;26;87852;-75
2024/04/18 16:40:39;;;;;;;;;;;;;;;;;;5261107;26;87346;-76